createdAt,value
2022-11-13T00:01:50.177Z,1.00
2022-11-13T00:03:52.036Z,1.00
2022-11-13T00:06:03.677Z,1.00
2022-11-13T00:08:05.315Z,1.00
2022-11-13T00:10:07.323Z,1.00
2022-11-13T00:12:09.092Z,1.00
2022-11-13T00:14:10.852Z,1.00
2022-11-13T00:16:15.626Z,1.00
2022-11-13T00:18:17.360Z,1.00
2022-11-13T00:20:19.367Z,1.00
2022-11-13T00:22:21.100Z,1.00
2022-11-13T00:24:22.794Z,1.00
2022-11-13T00:26:27.315Z,1.00
2022-11-13T00:28:29.354Z,1.00
2022-11-13T00:30:31.249Z,1.00
2022-11-13T00:32:32.940Z,1.00
2022-11-13T00:34:46.981Z,1.00
2022-11-13T00:36:49.565Z,1.00
2022-11-13T00:38:51.476Z,1.00
2022-11-13T00:40:53.133Z,1.00
2022-11-13T00:42:54.753Z,1.00
2022-11-13T00:44:56.414Z,1.00
2022-11-13T00:46:58.174Z,1.00
2022-11-13T00:48:59.817Z,1.00
2022-11-13T00:51:01.712Z,1.00
2022-11-13T00:53:03.360Z,1.00
2022-11-13T00:55:05.487Z,1.00
2022-11-13T00:57:07.153Z,1.00
2022-11-13T00:59:08.923Z,1.00
2022-11-13T01:01:14.032Z,1.00
2022-11-13T01:03:17.682Z,1.00
2022-11-13T01:05:19.400Z,1.00
2022-11-13T01:07:21.084Z,1.00
2022-11-13T01:09:22.936Z,1.00
2022-11-13T01:11:28.334Z,1.00
2022-11-13T01:13:29.971Z,1.00
2022-11-13T01:15:31.835Z,1.00
2022-11-13T01:17:33.524Z,1.00
2022-11-13T01:19:35.500Z,1.00
2022-11-13T01:21:37.153Z,1.00
2022-11-13T01:23:38.970Z,1.00
2022-11-13T01:25:40.811Z,1.00
2022-11-13T01:27:42.452Z,1.00
2022-11-13T01:29:44.248Z,1.00
2022-11-13T01:31:45.890Z,1.00
2022-11-13T01:33:48.819Z,1.00
2022-11-13T01:35:50.668Z,1.00
2022-11-13T01:37:52.293Z,1.00
2022-11-13T01:39:54.116Z,1.00
2022-11-13T01:41:55.916Z,1.00
2022-11-13T01:43:58.511Z,1.00
2022-11-13T01:46:00.184Z,1.00
2022-11-13T01:48:02.096Z,1.00
2022-11-13T01:50:04.283Z,1.00
2022-11-13T01:52:20.091Z,1.00
2022-11-13T01:54:34.952Z,1.00
2022-11-13T01:56:36.960Z,1.00
2022-11-13T01:58:40.600Z,1.00
2022-11-13T02:00:42.240Z,1.00
2022-11-13T02:02:44.288Z,1.00
2022-11-13T02:04:46.322Z,1.00
2022-11-13T02:07:01.488Z,1.00
2022-11-13T02:09:05.237Z,1.00
2022-11-13T02:11:07.202Z,1.00
2022-11-13T02:13:10.230Z,1.00
2022-11-13T02:15:12.153Z,1.00
2022-11-13T02:17:29.188Z,1.00
2022-11-13T02:19:38.264Z,1.00
2022-11-13T02:22:24.492Z,1.00
2022-11-13T02:24:40.989Z,1.00
2022-11-13T02:26:45.121Z,1.00
2022-11-13T02:28:47.135Z,1.00
2022-11-13T02:30:48.806Z,1.00
2022-11-13T02:32:52.536Z,1.00
2022-11-13T02:34:54.217Z,1.00
2022-11-13T02:36:55.864Z,1.00
2022-11-13T02:39:02.035Z,1.00
2022-11-13T02:41:03.673Z,1.00
2022-11-13T02:43:05.418Z,1.00
2022-11-13T02:45:07.801Z,1.00
2022-11-13T02:47:09.584Z,1.00
2022-11-13T02:49:11.333Z,1.00
2022-11-13T02:51:13.857Z,1.00
2022-11-13T02:53:15.477Z,1.00
2022-11-13T02:55:17.299Z,1.00
2022-11-13T02:57:18.957Z,1.00
2022-11-13T02:59:20.719Z,1.00
2022-11-13T03:01:22.509Z,1.00
2022-11-13T03:03:48.097Z,1.00
2022-11-13T03:05:50.184Z,1.00
2022-11-13T03:07:52.009Z,1.00
2022-11-13T03:09:53.657Z,1.00
2022-11-13T03:11:55.416Z,1.00
2022-11-13T03:13:57.237Z,1.00
2022-11-13T03:16:06.661Z,1.00
2022-11-13T03:18:09.024Z,1.00
2022-11-13T03:20:10.711Z,1.00
2022-11-13T03:22:12.405Z,1.00
2022-11-13T03:24:14.025Z,1.00
2022-11-13T03:26:17.075Z,1.00
2022-11-13T03:28:18.735Z,1.00
2022-11-13T03:30:20.465Z,1.00
2022-11-13T03:32:22.117Z,1.00
2022-11-13T03:34:23.732Z,1.00
2022-11-13T03:36:25.352Z,1.00
2022-11-13T03:38:30.995Z,1.00
2022-11-13T03:40:32.764Z,1.00
2022-11-13T03:42:34.978Z,1.00
2022-11-13T03:44:36.650Z,1.00
2022-11-13T03:46:38.367Z,1.00
2022-11-13T03:48:40.197Z,1.00
2022-11-13T03:50:47.192Z,1.00
2022-11-13T03:52:48.841Z,1.00
2022-11-13T03:54:50.488Z,1.00
2022-11-13T03:56:52.193Z,1.00
2022-11-13T03:58:53.851Z,1.00
2022-11-13T04:00:56.133Z,1.00
2022-11-13T04:02:57.889Z,1.00
2022-11-13T04:04:59.749Z,1.00
2022-11-13T04:07:01.456Z,1.00
2022-11-13T04:09:03.419Z,1.00
2022-11-13T04:11:09.882Z,1.00
2022-11-13T04:13:12.069Z,1.00
2022-11-13T04:15:13.987Z,1.00
2022-11-13T04:17:15.671Z,1.00
2022-11-13T04:19:17.280Z,1.00
2022-11-13T04:21:18.926Z,1.00
2022-11-13T04:23:20.580Z,1.00
2022-11-13T04:25:22.404Z,1.00
2022-11-13T04:27:24.485Z,1.00
2022-11-13T04:29:26.178Z,1.00
2022-11-13T04:31:27.938Z,1.00
2022-11-13T04:33:29.588Z,1.00
2022-11-13T04:35:31.245Z,1.00
2022-11-13T04:37:32.888Z,1.00
2022-11-13T04:39:34.519Z,1.00
2022-11-13T04:41:55.619Z,1.00
2022-11-13T04:43:57.424Z,1.00
2022-11-13T04:45:59.098Z,1.00
2022-11-13T04:48:00.787Z,1.00
2022-11-13T04:50:03.264Z,1.00
2022-11-13T04:52:05.345Z,1.00
2022-11-13T04:54:06.976Z,1.00
2022-11-13T04:56:08.585Z,1.00
2022-11-13T04:58:10.233Z,1.00
2022-11-13T05:00:12.466Z,1.00
2022-11-13T05:02:14.081Z,1.00
2022-11-13T05:04:16.096Z,1.00
2022-11-13T05:06:17.720Z,1.00
2022-11-13T05:08:19.329Z,1.00
2022-11-13T05:10:21.907Z,1.00
2022-11-13T05:12:23.536Z,1.00
2022-11-13T05:14:25.212Z,1.00
2022-11-13T05:16:26.852Z,1.00
2022-11-13T05:18:28.926Z,1.00
2022-11-13T05:20:30.752Z,1.00
2022-11-13T05:22:32.389Z,1.00
2022-11-13T05:24:34.009Z,1.00
2022-11-13T05:26:37.920Z,1.00
2022-11-13T05:28:40.288Z,1.00
2022-11-13T05:30:41.988Z,1.00
2022-11-13T05:32:43.601Z,1.00
2022-11-13T05:34:45.237Z,1.00
2022-11-13T05:36:46.901Z,1.00
2022-11-13T05:38:48.703Z,1.00
2022-11-13T05:40:50.317Z,1.00
2022-11-13T05:42:53.895Z,1.00
2022-11-13T05:44:55.588Z,1.00
2022-11-13T05:46:57.307Z,1.00
2022-11-13T05:49:00.974Z,1.00
2022-11-13T05:51:09.690Z,1.00
2022-11-13T05:53:11.292Z,1.00
2022-11-13T05:55:12.907Z,1.00
2022-11-13T05:57:14.661Z,1.00
2022-11-13T05:59:16.400Z,1.00
2022-11-13T06:01:30.234Z,1.00
2022-11-13T06:03:32.260Z,1.00
2022-11-13T06:05:35.734Z,1.00
2022-11-13T06:07:37.421Z,1.00
2022-11-13T06:09:39.913Z,1.00
2022-11-13T06:11:41.552Z,1.00
2022-11-13T06:13:43.625Z,1.00
2022-11-13T06:15:45.411Z,1.00
2022-11-13T06:17:47.171Z,1.00
2022-11-13T06:19:48.832Z,1.00
2022-11-13T06:21:50.548Z,1.00
2022-11-13T06:23:52.502Z,10.50
2022-11-13T06:26:04.225Z,27.40
2022-11-13T06:28:05.888Z,36.90
2022-11-13T06:30:08.312Z,51.00
2022-11-13T06:32:09.945Z,54.40
2022-11-13T06:34:11.720Z,50.50
2022-11-13T06:36:19.154Z,46.00
2022-11-13T06:38:20.807Z,41.00
2022-11-13T06:40:22.428Z,45.70
2022-11-13T06:42:24.060Z,44.40
2022-11-13T06:44:25.700Z,27.20
2022-11-13T06:46:29.137Z,22.50
2022-11-13T06:48:31.619Z,18.10
2022-11-13T06:50:33.554Z,2.00
2022-11-13T06:52:35.218Z,1.00
2022-11-13T06:54:36.925Z,1.00
2022-11-13T06:56:43.654Z,1.00
2022-11-13T06:58:45.542Z,1.00
2022-11-13T07:00:47.729Z,1.00
2022-11-13T07:02:52.300Z,1.00
2022-11-13T07:04:53.921Z,1.00
2022-11-13T07:06:55.748Z,1.00
2022-11-13T07:08:57.501Z,1.00
2022-11-13T07:10:59.863Z,1.00
2022-11-13T07:13:01.980Z,1.00
2022-11-13T07:15:03.777Z,1.00
2022-11-13T07:17:09.751Z,1.00
2022-11-13T07:19:11.895Z,1.00
2022-11-13T07:21:13.568Z,1.00
2022-11-13T07:23:15.274Z,1.00
2022-11-13T07:25:17.028Z,99.90
2022-11-13T07:27:18.657Z,1.00
2022-11-13T07:29:20.482Z,99.90
2022-11-13T07:31:22.227Z,1.00
2022-11-13T07:33:24.031Z,99.90
2022-11-13T07:35:25.728Z,99.90
2022-11-13T07:37:27.343Z,1.00
2022-11-13T07:39:28.941Z,99.90
2022-11-13T07:41:30.565Z,1.00
2022-11-13T07:43:32.197Z,99.90
2022-11-13T07:45:33.875Z,99.90
2022-11-13T07:47:35.473Z,38.20
2022-11-13T07:49:37.092Z,99.90
2022-11-13T07:51:38.751Z,99.90
2022-11-13T07:53:40.374Z,99.90
2022-11-13T07:55:42.221Z,1.00
2022-11-13T07:57:43.866Z,1.00
2022-11-13T07:59:45.480Z,99.90
2022-11-13T08:01:47.098Z,99.90
2022-11-13T08:03:48.730Z,1.00
2022-11-13T08:05:50.431Z,1.00
2022-11-13T08:07:52.814Z,1.00
2022-11-13T08:09:54.488Z,1.00
2022-11-13T08:11:56.113Z,99.90
2022-11-13T08:13:57.764Z,99.90
2022-11-13T08:16:00.555Z,99.90
2022-11-13T08:18:04.279Z,99.90
2022-11-13T08:20:07.369Z,99.90
2022-11-13T08:22:09.075Z,99.90
2022-11-13T08:24:10.879Z,99.90
2022-11-13T08:26:12.769Z,99.90
2022-11-13T08:28:14.924Z,99.90
2022-11-13T08:30:17.243Z,99.90
2022-11-13T08:32:20.163Z,99.90
2022-11-13T08:34:21.768Z,99.90
2022-11-13T08:36:23.477Z,99.90
2022-11-13T08:38:27.523Z,99.90
2022-11-13T08:40:29.970Z,99.90
2022-11-13T08:42:31.700Z,99.90
2022-11-13T08:44:33.340Z,99.90
2022-11-13T08:46:34.963Z,99.90
2022-11-13T08:48:37.614Z,99.90
2022-11-13T08:50:39.912Z,99.90
2022-11-13T08:52:41.535Z,99.90
2022-11-13T08:54:43.229Z,99.90
2022-11-13T08:56:53.030Z,99.90
2022-11-13T08:58:57.709Z,99.90
2022-11-13T09:01:03.874Z,99.90
2022-11-13T09:03:06.023Z,99.90
2022-11-13T09:05:07.946Z,99.90
2022-11-13T09:07:10.352Z,99.90
2022-11-13T09:09:12.127Z,99.90
2022-11-13T09:11:13.748Z,99.90
2022-11-13T09:13:15.474Z,99.90
2022-11-13T09:15:21.759Z,99.90
2022-11-13T09:17:26.086Z,99.90
2022-11-13T09:19:28.357Z,99.90
2022-11-13T09:21:30.296Z,93.60
2022-11-13T09:23:31.916Z,90.50
2022-11-13T09:25:37.867Z,88.60
2022-11-13T09:27:39.864Z,81.40
2022-11-13T09:29:41.489Z,81.40
2022-11-13T09:31:43.145Z,90.20
2022-11-13T09:33:44.804Z,87.30
2022-11-13T09:35:46.428Z,83.90
2022-11-13T09:37:52.321Z,75.60
2022-11-13T09:39:53.909Z,76.60
2022-11-13T09:41:57.826Z,78.20
2022-11-13T09:44:06.784Z,87.90
2022-11-13T09:46:21.609Z,95.70
2022-11-13T09:48:36.912Z,93.00
2022-11-13T09:50:39.751Z,89.40
2022-11-13T09:52:43.761Z,96.30
2022-11-13T09:54:45.540Z,99.90
2022-11-13T09:56:50.227Z,94.70
2022-11-13T09:59:03.716Z,97.40
2022-11-13T10:01:15.963Z,97.50
2022-11-13T10:06:04.824Z,99.90
2022-11-13T10:08:36.368Z,99.90
2022-11-13T10:10:55.614Z,93.80
2022-11-13T10:13:00.074Z,99.90
2022-11-13T10:15:04.247Z,92.20
2022-11-13T10:17:18.937Z,78.40
2022-11-13T10:19:32.711Z,67.60
2022-11-13T10:22:31.792Z,66.90
2022-11-13T10:24:33.726Z,61.00
2022-11-13T10:26:35.687Z,75.40
2022-11-13T10:28:54.824Z,81.20
2022-11-13T10:30:56.652Z,85.40
2022-11-13T10:33:04.607Z,75.00
2022-11-13T10:35:06.243Z,75.80
2022-11-13T10:37:45.340Z,69.10
2022-11-13T10:39:47.183Z,69.50
2022-11-13T10:41:51.257Z,63.10
2022-11-13T10:44:05.784Z,58.60
2022-11-13T10:46:18.628Z,82.20
2022-11-13T10:48:23.172Z,99.90
2022-11-13T10:50:28.417Z,99.90
2022-11-13T10:52:30.235Z,99.90
2022-11-13T10:54:33.276Z,99.90
2022-11-13T10:56:36.205Z,99.90
2022-11-13T10:58:37.850Z,99.90
2022-11-13T11:00:41.468Z,99.90
2022-11-13T11:02:49.882Z,99.90
2022-11-13T11:05:21.843Z,99.90
2022-11-13T11:07:23.817Z,99.90
2022-11-13T11:09:29.888Z,99.90
2022-11-13T11:11:50.529Z,99.90
2022-11-13T11:13:52.947Z,99.90
2022-11-13T11:15:59.514Z,99.90
2022-11-13T11:18:05.604Z,99.90
2022-11-13T11:20:40.728Z,1.00
2022-11-13T11:22:44.985Z,1.00
2022-11-13T11:25:02.768Z,7.50
2022-11-13T11:27:25.106Z,99.90
2022-11-13T11:29:49.641Z,1.00
2022-11-13T11:32:02.601Z,15.40
2022-11-13T11:34:43.197Z,1.00
2022-11-13T11:37:07.466Z,1.00
2022-11-13T11:39:29.503Z,1.00
2022-11-13T11:41:45.775Z,1.00
2022-11-13T11:44:15.477Z,1.70
2022-11-13T11:46:23.973Z,1.00
2022-11-13T11:48:31.942Z,99.90
2022-11-13T11:50:44.165Z,1.00
2022-11-13T11:52:55.040Z,1.00
2022-11-13T11:55:19.560Z,1.00
2022-11-13T11:57:30.120Z,1.00
2022-11-13T12:00:01.080Z,1.00
2022-11-13T12:02:29.827Z,49.50
2022-11-13T12:05:05.107Z,44.40
2022-11-13T12:07:25.323Z,99.90
2022-11-13T12:09:33.678Z,1.00
2022-11-13T12:11:40.482Z,1.00
2022-11-13T12:14:00.452Z,1.00
2022-11-13T12:16:15.619Z,99.90
2022-11-13T12:19:01.460Z,99.90
2022-11-13T12:21:26.977Z,99.90
2022-11-13T12:24:00.037Z,99.90
2022-11-13T12:26:14.529Z,99.90
2022-11-13T12:28:41.326Z,99.90
2022-11-13T12:30:56.773Z,99.90
2022-11-13T12:33:05.718Z,99.90
2022-11-13T12:35:20.553Z,99.90
2022-11-13T12:37:28.668Z,99.90
2022-11-13T12:40:11.004Z,99.90
2022-11-13T12:42:30.880Z,44.40
2022-11-13T12:44:44.972Z,57.80
2022-11-13T12:46:47.270Z,98.30
2022-11-13T12:48:48.944Z,6.90
2022-11-13T12:50:59.279Z,99.90
2022-11-13T12:53:10.465Z,99.90
2022-11-13T12:55:34.788Z,99.90
2022-11-13T12:57:47.593Z,99.90
2022-11-13T12:59:53.760Z,1.00
2022-11-13T13:02:21.015Z,99.90
2022-11-13T13:05:00.945Z,1.00
2022-11-13T13:07:22.682Z,3.90
2022-11-13T13:09:42.048Z,1.00
2022-11-13T13:12:11.606Z,1.00
2022-11-13T13:14:42.984Z,98.30
2022-11-13T13:16:44.933Z,99.90
2022-11-13T13:18:46.555Z,99.90
2022-11-13T13:20:57.284Z,99.90
2022-11-13T13:23:00.718Z,1.00
2022-11-13T13:25:22.140Z,99.90
2022-11-13T13:27:29.358Z,1.00
2022-11-13T13:29:33.616Z,1.00
2022-11-13T13:31:48.998Z,99.90
2022-11-13T13:34:00.184Z,99.90
2022-11-13T13:36:15.674Z,46.60
2022-11-13T13:38:31.780Z,1.00
2022-11-13T13:40:48.018Z,99.90
2022-11-13T13:42:55.555Z,1.00
2022-11-13T13:45:19.487Z,97.70
2022-11-13T13:47:35.108Z,1.00
2022-11-13T13:49:37.117Z,99.90
2022-11-13T13:51:45.368Z,99.90
2022-11-13T13:53:49.490Z,99.90
2022-11-13T13:55:58.174Z,99.90
2022-11-13T13:58:05.597Z,1.00
2022-11-13T14:00:13.377Z,1.00
2022-11-13T14:02:18.014Z,99.90
2022-11-13T14:04:21.772Z,99.90
2022-11-13T14:06:24.603Z,1.00
2022-11-13T14:08:27.436Z,99.90
2022-11-13T14:10:29.616Z,1.00
2022-11-13T14:12:31.323Z,99.90
2022-11-13T14:14:33.784Z,1.00
2022-11-13T14:16:45.984Z,1.00
2022-11-13T14:18:47.739Z,99.90
2022-11-13T14:20:54.195Z,1.00
2022-11-13T14:22:56.739Z,1.00
2022-11-13T14:25:00.785Z,1.00
2022-11-13T14:27:06.817Z,1.00
2022-11-13T14:29:31.965Z,1.00
2022-11-13T14:31:35.377Z,99.90
2022-11-13T14:33:44.496Z,1.00
2022-11-13T14:35:55.077Z,1.00
2022-11-13T14:37:56.837Z,1.00
2022-11-13T14:40:02.633Z,99.90
2022-11-13T14:42:04.384Z,99.90
2022-11-13T14:44:06.266Z,1.00
2022-11-13T14:46:28.320Z,99.90
2022-11-13T14:48:34.601Z,1.00
2022-11-13T14:50:37.233Z,99.90
2022-11-13T14:52:38.894Z,1.00
2022-11-13T14:55:13.813Z,1.00
2022-11-13T14:57:14.069Z,97.10
2022-11-13T14:59:26.806Z,49.20
2022-11-13T15:01:28.684Z,99.90
2022-11-13T15:03:30.750Z,1.00
2022-11-13T15:05:32.989Z,1.00
2022-11-13T15:07:37.895Z,1.00
2022-11-13T15:09:39.521Z,1.00
2022-11-13T15:11:41.149Z,1.00
2022-11-13T15:13:43.471Z,1.00
2022-11-13T15:15:45.217Z,1.00
2022-11-13T15:17:50.361Z,1.00
2022-11-13T15:19:53.985Z,1.00
2022-11-13T15:22:25.226Z,1.00
2022-11-13T15:24:17.877Z,1.00
2022-11-13T15:26:19.654Z,1.00
2022-11-13T15:28:21.383Z,1.00
2022-11-13T15:30:23.005Z,1.00
2022-11-13T15:32:24.644Z,1.00
2022-11-13T15:34:26.852Z,1.00
2022-11-13T15:36:28.489Z,1.00
2022-11-13T15:38:30.100Z,1.00
2022-11-13T15:40:31.962Z,1.00
2022-11-13T15:42:35.620Z,1.00
2022-11-13T15:44:37.263Z,1.00
2022-11-13T15:46:39.259Z,1.00
2022-11-13T15:48:41.067Z,1.00
2022-11-13T15:50:42.812Z,1.00
2022-11-13T15:52:50.650Z,1.00
2022-11-13T15:54:52.936Z,1.00
2022-11-13T15:56:54.587Z,1.00
2022-11-13T15:58:56.279Z,1.00
2022-11-13T16:00:58.173Z,1.00
2022-11-13T16:02:59.955Z,1.00
2022-11-13T16:05:01.574Z,1.00
2022-11-13T16:07:03.329Z,1.00
2022-11-13T16:09:05.361Z,1.00
2022-11-13T16:11:07.607Z,1.00
2022-11-13T16:13:09.234Z,1.00
2022-11-13T16:15:14.133Z,1.00
2022-11-13T16:17:20.824Z,1.00
2022-11-13T16:19:24.491Z,1.00
2022-11-13T16:21:26.552Z,1.00
2022-11-13T16:23:28.542Z,1.00
2022-11-13T16:25:30.374Z,1.00
2022-11-13T16:27:36.062Z,1.00
2022-11-13T16:29:37.851Z,1.00
2022-11-13T16:31:39.501Z,1.00
2022-11-13T16:33:41.528Z,1.00
2022-11-13T16:35:43.339Z,1.00
2022-11-13T16:37:45.240Z,1.00
2022-11-13T16:39:47.399Z,1.00
2022-11-13T16:41:49.071Z,1.00
2022-11-13T16:43:50.742Z,1.00
2022-11-13T16:45:52.890Z,1.00
2022-11-13T16:47:54.517Z,1.00
2022-11-13T16:49:56.192Z,1.00
2022-11-13T16:51:57.869Z,1.00
2022-11-13T16:53:59.597Z,1.00
2022-11-13T16:56:01.821Z,1.00
2022-11-13T16:58:04.564Z,1.00
2022-11-13T17:00:08.868Z,1.00
2022-11-13T17:02:15.424Z,1.00
2022-11-13T17:04:17.123Z,1.00
2022-11-13T17:06:26.485Z,1.00
2022-11-13T17:08:28.132Z,1.00
2022-11-13T17:10:31.984Z,7.50
2022-11-13T17:12:34.484Z,13.30
2022-11-13T17:14:36.373Z,12.00
2022-11-13T17:16:38.008Z,18.20
2022-11-13T17:18:39.664Z,25.90
2022-11-13T17:20:41.334Z,54.80
2022-11-13T17:22:48.265Z,60.70
2022-11-13T17:24:50.392Z,89.80
2022-11-13T17:26:52.011Z,96.30
2022-11-13T17:28:54.213Z,99.90
2022-11-13T17:31:00.140Z,99.90
2022-11-13T17:33:01.793Z,97.80
2022-11-13T17:35:03.994Z,99.90
2022-11-13T17:37:05.620Z,99.90
2022-11-13T17:39:07.274Z,99.90
2022-11-13T17:41:10.837Z,99.90
2022-11-13T17:43:12.512Z,99.90
2022-11-13T17:45:14.566Z,99.90
2022-11-13T17:47:16.441Z,99.90
2022-11-13T17:49:18.411Z,99.90
2022-11-13T17:51:20.315Z,99.90
2022-11-13T17:53:22.227Z,99.90
2022-11-13T17:55:24.361Z,99.90
2022-11-13T17:57:27.164Z,99.90
2022-11-13T17:59:28.972Z,99.90
2022-11-13T18:01:33.762Z,99.90
2022-11-13T18:03:35.522Z,99.90
2022-11-13T18:05:40.630Z,99.90
2022-11-13T18:07:42.840Z,99.90
2022-11-13T18:09:44.463Z,99.90
2022-11-13T18:11:46.070Z,99.90
2022-11-13T18:13:49.114Z,99.90
2022-11-13T18:15:50.944Z,99.90
2022-11-13T18:17:52.586Z,99.90
2022-11-13T18:20:00.427Z,99.90
2022-11-13T18:22:03.610Z,99.90
2022-11-13T18:24:13.489Z,99.90
2022-11-13T18:26:18.404Z,99.90
2022-11-13T18:28:20.037Z,99.90
2022-11-13T18:30:21.750Z,99.90
2022-11-13T18:32:23.474Z,99.90
2022-11-13T18:34:25.921Z,99.90
2022-11-13T18:36:27.856Z,99.90
2022-11-13T18:38:30.530Z,99.90
2022-11-13T18:40:32.155Z,99.90
2022-11-13T18:42:33.751Z,99.90
2022-11-13T18:44:36.587Z,99.90
2022-11-13T18:46:38.935Z,99.90
2022-11-13T18:48:42.231Z,99.90
2022-11-13T18:50:55.401Z,99.90
2022-11-13T18:52:57.040Z,99.90
2022-11-13T18:54:58.703Z,99.90
2022-11-13T18:57:00.626Z,99.90
2022-11-13T18:59:02.222Z,99.90
2022-11-13T19:01:26.956Z,99.90
2022-11-13T19:03:29.198Z,99.90
2022-11-13T19:05:30.973Z,99.90
2022-11-13T19:07:32.645Z,99.90
2022-11-13T19:09:34.783Z,99.90
2022-11-13T19:11:36.432Z,99.90
2022-11-13T19:13:39.200Z,99.90
2022-11-13T19:15:40.857Z,99.90
2022-11-13T19:17:42.499Z,99.90
2022-11-13T19:19:44.493Z,99.90
2022-11-13T19:21:46.691Z,99.90
2022-11-13T19:23:48.370Z,99.90
2022-11-13T19:25:50.044Z,99.90
2022-11-13T19:27:54.152Z,99.90
2022-11-13T19:29:55.743Z,99.90
2022-11-13T19:31:57.441Z,99.90
2022-11-13T19:34:01.943Z,99.90
2022-11-13T19:36:12.328Z,99.90
2022-11-13T19:38:13.971Z,99.90
2022-11-13T19:40:15.690Z,99.90
2022-11-13T19:42:17.644Z,99.90
2022-11-13T19:44:19.422Z,99.90
2022-11-13T19:46:21.513Z,99.90
2022-11-13T19:48:23.159Z,99.90
2022-11-13T19:50:24.783Z,99.90
2022-11-13T19:52:26.632Z,99.90
2022-11-13T19:54:28.241Z,99.90
2022-11-13T19:56:29.879Z,99.90
2022-11-13T19:58:31.959Z,99.90
2022-11-13T20:00:34.100Z,99.90
2022-11-13T20:02:35.724Z,99.90
2022-11-13T20:04:37.410Z,99.90
2022-11-13T20:06:39.152Z,99.90
2022-11-13T20:08:41.970Z,99.90
2022-11-13T20:10:43.685Z,99.90
2022-11-13T20:12:46.352Z,99.90
2022-11-13T20:14:47.974Z,99.90
2022-11-13T20:16:49.616Z,99.90
2022-11-13T20:18:52.279Z,99.90
2022-11-13T20:20:55.101Z,99.90
2022-11-13T20:22:56.897Z,99.90
2022-11-13T20:24:58.724Z,99.90
2022-11-13T20:27:00.372Z,99.90
2022-11-13T20:29:02.024Z,99.90
2022-11-13T20:31:12.628Z,99.90
2022-11-13T20:33:18.425Z,99.90
2022-11-13T20:35:23.079Z,99.90
2022-11-13T20:37:24.719Z,99.90
2022-11-13T20:39:26.373Z,99.90
2022-11-13T20:41:28.140Z,99.90
2022-11-13T20:43:29.790Z,99.90
2022-11-13T20:45:31.428Z,99.90
2022-11-13T20:47:34.732Z,99.90
2022-11-13T20:49:36.468Z,99.90
2022-11-13T20:51:38.217Z,99.90
2022-11-13T20:53:40.249Z,99.90
2022-11-13T20:55:42.239Z,99.90
2022-11-13T20:57:43.880Z,99.90
2022-11-13T20:59:45.483Z,99.90
2022-11-13T21:01:47.200Z,99.90
2022-11-13T21:03:49.452Z,99.90
2022-11-13T21:05:51.117Z,99.90
2022-11-13T21:07:53.738Z,99.90
2022-11-13T21:09:55.329Z,99.90
2022-11-13T21:11:56.985Z,99.90
2022-11-13T21:14:00.571Z,99.90
2022-11-13T21:16:09.347Z,99.90
2022-11-13T21:18:11.065Z,99.90
2022-11-13T21:20:12.949Z,99.90
2022-11-13T21:22:14.568Z,99.90
2022-11-13T21:24:16.364Z,99.90
2022-11-13T21:26:18.612Z,99.90
2022-11-13T21:28:24.058Z,99.90
2022-11-13T21:30:27.203Z,99.90
2022-11-13T21:32:28.829Z,99.90
2022-11-13T21:34:30.728Z,99.90
2022-11-13T21:36:32.495Z,99.90
2022-11-13T21:38:34.426Z,99.90
2022-11-13T21:40:36.572Z,99.90
2022-11-13T21:42:38.232Z,99.90
2022-11-13T21:44:39.830Z,99.90
2022-11-13T21:46:45.688Z,99.90
2022-11-13T21:48:48.247Z,99.90
2022-11-13T21:50:50.089Z,99.90
2022-11-13T21:52:51.927Z,99.90
2022-11-13T21:54:53.705Z,99.90
2022-11-13T21:56:55.348Z,99.90
2022-11-13T21:58:57.126Z,99.90
2022-11-13T22:00:59.543Z,99.90
2022-11-13T22:03:01.323Z,99.90
2022-11-13T22:05:02.953Z,99.90
2022-11-13T22:07:04.685Z,99.90
2022-11-13T22:09:12.739Z,99.90
2022-11-13T22:11:14.587Z,99.90
2022-11-13T22:13:16.380Z,99.90
2022-11-13T22:15:18.011Z,99.90
2022-11-13T22:17:19.727Z,99.90
2022-11-13T22:19:27.101Z,99.90
2022-11-13T22:21:30.652Z,99.90
2022-11-13T22:23:33.334Z,99.90
2022-11-13T22:25:35.264Z,99.90
2022-11-13T22:27:37.197Z,99.90
2022-11-13T22:29:39.090Z,99.90
2022-11-13T22:31:40.828Z,99.90
2022-11-13T22:33:48.160Z,99.90
2022-11-13T22:35:51.347Z,99.90
2022-11-13T22:37:53.148Z,99.90
2022-11-13T22:39:54.762Z,99.90
2022-11-13T22:41:56.690Z,99.90
2022-11-13T22:44:07.374Z,99.90
2022-11-13T22:46:11.670Z,99.90
2022-11-13T22:48:13.326Z,99.90
2022-11-13T22:50:15.028Z,99.90
2022-11-13T22:52:16.664Z,99.90
2022-11-13T22:54:18.541Z,99.90
2022-11-13T22:56:21.596Z,99.90
2022-11-13T22:58:23.313Z,99.90
2022-11-13T23:00:24.935Z,99.90
2022-11-13T23:02:26.669Z,99.90
2022-11-13T23:04:28.509Z,99.90
2022-11-13T23:06:32.115Z,99.90
2022-11-13T23:08:43.947Z,99.90
2022-11-13T23:10:54.980Z,99.90
2022-11-13T23:12:56.668Z,99.90
2022-11-13T23:14:58.467Z,99.90
2022-11-13T23:17:00.135Z,99.90
2022-11-13T23:19:02.499Z,99.90
2022-11-13T23:21:05.051Z,99.90
2022-11-13T23:23:06.717Z,99.90
2022-11-13T23:25:08.844Z,99.90
2022-11-13T23:27:10.478Z,99.90
2022-11-13T23:29:12.525Z,99.90
2022-11-13T23:31:14.314Z,99.90
2022-11-13T23:33:15.941Z,99.90
2022-11-13T23:35:17.638Z,99.90
2022-11-13T23:37:19.285Z,99.90
2022-11-13T23:39:20.878Z,99.90
2022-11-13T23:41:22.583Z,99.90
2022-11-13T23:43:41.603Z,99.90
2022-11-13T23:45:47.339Z,99.90
2022-11-13T23:47:49.056Z,99.90
2022-11-13T23:49:50.705Z,99.90
2022-11-13T23:51:52.333Z,99.90
2022-11-13T23:53:53.967Z,99.90
2022-11-13T23:55:55.590Z,99.90
2022-11-13T23:57:58.963Z,99.90
